Maersk Lota — 9V9777 — position and weather

sailwx.info

Track history (hours):
 
Tides and Currents Weather Stations Pressure Air Temp Water Temp Dewpoint Dewpoint Depression Visibility Wind Speed Wind Dir Waves Ship Positions

Maersk Lota

Last reported at 2018-Jul-08 03:19 UTC. Time now 2018-Jul-17 05:42 UTC.
Position S 24°57' W 047°02'.
Warning: this ship's position is 9 days out of date.

Length 300 m; draft 9.9 m.

Type: Ship (hazmat cat D). MMSI: 566383000.

Date/timePositionNaut miles runAvg speedWind from/ knotsBaromVisibWave heightAir tempDewpointWater temp
2018-Jul-08 03:19S 24°57' W 047°02'310.7
2018-Jul-08 03:00S 24°54' W 046°59'510.9
2018-Jul-08 02:30S 24°50' W 046°55'510.9
2018-Jul-08 02:00S 24°47' W 046°51'510.8
2018-Jul-08 01:30S 24°43' W 046°47'610.8
2018-Jul-08 00:56S 24°38' W 046°42'1110.5
2018-Jul-07 23:55S 24°31' W 046°34'410.3
2018-Jul-07 23:30S 24°27' W 046°32'510.2
2018-Jul-07 22:59S 24°22' W 046°29'510.4
2018-Jul-07 22:30S 24°18' W 046°27'510.3
2018-Jul-07 22:00S 24°13' W 046°26'510.3
2018-Jul-07 21:30S 24°08' W 046°24'510.3
2018-Jul-07 21:00S 24°03' W 046°22'4 8.2
2018-Jul-07 20:30S 23°60' W 046°19'2 4.6
2018-Jul-07 19:58S 23°57' W 046°18'0 0.0
2018-Jul-06 21:14S 23°57' W 046°19'2 9.4
2018-Jul-06 21:00S 23°59' W 046°17'4 7.8
2018-Jul-06 20:30S 24°01' W 046°21'4 9.1
2018-Jul-06 20:00S 24°05' W 046°22'510.6
2018-Jul-06 19:31S 24°10' W 046°25'3 6.7
2018-Jul-06 19:00S 24°13' W 046°26'1 1.2
2018-Jul-06 18:31S 24°14' W 046°25'1 1.1
2018-Jul-06 18:00S 24°14' W 046°25'2 3.6
2018-Jul-06 17:30S 24°14' W 046°23'5 9.3
2018-Jul-06 17:00S 24°18' W 046°19'5 9.9
2018-Jul-06 16:30S 24°21' W 046°16'5 9.1
2018-Jul-06 16:00S 24°23' W 046°11'5 9.5
2018-Jul-06 15:30S 24°22' W 046°06'5 9.3
2018-Jul-06 15:00S 24°22' W 046°01'  
Track history (hours):
 
Tides and Currents Weather Stations Pressure Air Temp Water Temp Dewpoint Dewpoint Depression Visibility Wind Speed Wind Dir Waves Ship Positions

Maersk Lota

Last reported at 2018-Jul-08 03:19 UTC. Time now 2018-Jul-17 05:42 UTC.
Position S 24°57' W 047°02'.
Warning: this ship's position is 9 days out of date.

Length 300 m; draft 9.9 m.

Type: Ship (hazmat cat D). MMSI: 566383000.

Date/timePositionNaut miles runAvg speedWind from/ knotsBaromVisibWave heightAir tempDewpointWater temp
2018-Jul-08 03:19S 24°57' W 047°02'310.7
2018-Jul-08 03:00S 24°54' W 046°59'510.9
2018-Jul-08 02:30S 24°50' W 046°55'510.9
2018-Jul-08 02:00S 24°47' W 046°51'510.8
2018-Jul-08 01:30S 24°43' W 046°47'610.8
2018-Jul-08 00:56S 24°38' W 046°42'1110.5
2018-Jul-07 23:55S 24°31' W 046°34'410.3
2018-Jul-07 23:30S 24°27' W 046°32'510.2
2018-Jul-07 22:59S 24°22' W 046°29'510.4
2018-Jul-07 22:30S 24°18' W 046°27'510.3
2018-Jul-07 22:00S 24°13' W 046°26'510.3
2018-Jul-07 21:30S 24°08' W 046°24'510.3
2018-Jul-07 21:00S 24°03' W 046°22'4 8.2
2018-Jul-07 20:30S 23°60' W 046°19'2 4.6
2018-Jul-07 19:58S 23°57' W 046°18'0 0.0
2018-Jul-06 21:14S 23°57' W 046°19'2 9.4
2018-Jul-06 21:00S 23°59' W 046°17'4 7.8
2018-Jul-06 20:30S 24°01' W 046°21'4 9.1
2018-Jul-06 20:00S 24°05' W 046°22'510.6
2018-Jul-06 19:31S 24°10' W 046°25'3 6.7
2018-Jul-06 19:00S 24°13' W 046°26'1 1.2
2018-Jul-06 18:31S 24°14' W 046°25'1 1.1
2018-Jul-06 18:00S 24°14' W 046°25'2 3.6
2018-Jul-06 17:30S 24°14' W 046°23'5 9.3
2018-Jul-06 17:00S 24°18' W 046°19'5 9.9
2018-Jul-06 16:30S 24°21' W 046°16'5 9.1
2018-Jul-06 16:00S 24°23' W 046°11'5 9.5
2018-Jul-06 15:30S 24°22' W 046°06'5 9.3
2018-Jul-06 15:00S 24°22' W 046°01'  

Dump ship's entire track history